createdAt,value
2018-11-03T00:02:39.003Z,4.97
2018-11-03T00:08:34.009Z,4.59
2018-11-03T00:14:29.090Z,4.75
2018-11-03T00:20:24.015Z,4.63
2018-11-03T00:26:19.008Z,4.7
2018-11-03T00:32:13.993Z,4.26
2018-11-03T00:38:09.017Z,4.44
2018-11-03T00:44:04.024Z,4.82
2018-11-03T00:49:59.037Z,4.24
2018-11-03T00:55:54.018Z,3.98
2018-11-03T01:01:49.036Z,4.54
2018-11-03T01:07:44.047Z,4.21
2018-11-03T01:13:39.045Z,4.26
2018-11-03T01:19:34.025Z,4.09
2018-11-03T01:25:29.025Z,3.66
2018-11-03T01:31:24.088Z,4.14
2018-11-03T01:37:19.042Z,4.36
2018-11-03T01:43:14.035Z,3.96
2018-11-03T01:49:09.027Z,3.93
2018-11-03T01:55:04.051Z,3.87
2018-11-03T02:00:59.077Z,3.57
2018-11-03T02:06:54.033Z,4.18
2018-11-03T02:12:49.026Z,3.99
2018-11-03T02:18:44.086Z,3.73
2018-11-03T02:24:39.036Z,3.78
2018-11-03T02:30:34.072Z,4.96
2018-11-03T02:36:29.049Z,4.44
2018-11-03T02:42:24.037Z,3.28
2018-11-03T02:48:19.067Z,3.89
2018-11-03T02:54:14.110Z,3.91
2018-11-03T03:00:09.075Z,2.98
2018-11-03T03:06:04.064Z,3.03
2018-11-03T03:11:59.045Z,2.86
2018-11-03T03:17:54.094Z,2.64
2018-11-03T03:23:49.071Z,2.43
2018-11-03T03:29:44.247Z,2.57
2018-11-03T03:35:39.062Z,3.01
2018-11-03T03:41:34.065Z,2.85
2018-11-03T03:47:29.054Z,2.93
2018-11-03T03:53:24.077Z,3.15
2018-11-03T03:59:19.068Z,2.58
2018-11-03T04:05:14.081Z,3.23
2018-11-03T04:11:09.096Z,3.04
2018-11-03T04:17:04.067Z,3.46
2018-11-03T04:22:59.064Z,3.07
2018-11-03T04:28:54.097Z,2.85
2018-11-03T04:34:49.072Z,2.87
2018-11-03T04:40:44.088Z,3.12
2018-11-03T04:46:39.098Z,3
2018-11-03T04:52:34.093Z,2.62
2018-11-03T04:58:29.085Z,2.89
2018-11-03T05:04:24.086Z,3.53
2018-11-03T05:10:19.147Z,3.59
2018-11-03T05:16:14.086Z,3.22
2018-11-03T05:22:09.133Z,3.5
2018-11-03T05:28:04.107Z,3.93
2018-11-03T05:33:59.109Z,3.47
2018-11-03T05:39:54.090Z,3.14
2018-11-03T05:45:49.129Z,3.29
2018-11-03T05:51:44.090Z,3.03
2018-11-03T05:57:39.156Z,2.79
2018-11-03T06:03:34.117Z,2.9
2018-11-03T06:09:29.112Z,3.34
2018-11-03T06:15:24.146Z,3.82
2018-11-03T06:21:19.099Z,3.56
2018-11-03T06:27:14.113Z,3.23
2018-11-03T06:33:09.105Z,3.67
2018-11-03T06:39:04.227Z,3.29
2018-11-03T06:44:59.208Z,3.29
2018-11-03T06:50:54.109Z,3.53
2018-11-03T06:56:49.152Z,3.31
2018-11-03T07:02:44.130Z,4.47
2018-11-03T07:08:39.127Z,3.54
2018-11-03T07:14:34.118Z,3.57
2018-11-03T07:20:29.187Z,3.61
2018-11-03T07:26:24.167Z,3.16
2018-11-03T07:32:19.145Z,3.15
2018-11-03T07:38:14.134Z,2.33
2018-11-03T07:44:09.141Z,3.15
2018-11-03T07:50:04.130Z,3.11
2018-11-03T07:55:59.166Z,3.59
2018-11-03T08:01:54.123Z,4.39
2018-11-03T08:07:49.124Z,3.47
2018-11-03T08:13:44.156Z,3.77
2018-11-03T08:19:39.193Z,3.2
2018-11-03T08:25:34.177Z,3.31
2018-11-03T08:31:29.305Z,2.78
2018-11-03T08:37:24.174Z,3.45
2018-11-03T08:43:19.158Z,2.39
2018-11-03T08:49:14.136Z,2.39
2018-11-03T08:55:09.206Z,2.48
2018-11-03T09:01:04.149Z,2.9
2018-11-03T09:06:59.259Z,2.68
2018-11-03T09:12:54.161Z,2.51
2018-11-03T09:18:49.160Z,2.3
2018-11-03T09:24:44.165Z,2.87
2018-11-03T09:30:39.186Z,8.37
2018-11-03T09:36:34.181Z,2.85
2018-11-03T09:42:29.181Z,1.98
2018-11-03T09:48:24.179Z,2.54
2018-11-03T09:54:19.207Z,1.9
2018-11-03T10:00:14.209Z,1.76
2018-11-03T10:06:09.178Z,2.26
2018-11-03T10:12:04.180Z,1.44
2018-11-03T10:17:59.158Z,1.1
2018-11-03T10:23:54.237Z,1.58
2018-11-03T10:29:49.318Z,1.89
2018-11-03T10:35:44.224Z,2.09
2018-11-03T10:41:39.171Z,3.29
2018-11-03T10:47:34.311Z,5.51
2018-11-03T10:53:29.242Z,2.06
2018-11-03T10:59:24.186Z,2.92
2018-11-03T11:05:19.208Z,1.61
2018-11-03T11:11:14.224Z,1.72
2018-11-03T11:17:09.192Z,3.38
2018-11-03T11:23:04.198Z,1.33
2018-11-03T11:28:59.214Z,0.93
2018-11-03T11:34:54.238Z,3.03
2018-11-03T11:40:49.240Z,2.62
2018-11-03T11:46:44.210Z,1.03
2018-11-03T11:52:39.281Z,2.75
2018-11-03T11:58:34.215Z,1.45
2018-11-03T12:04:29.208Z,1.02
2018-11-03T12:10:24.208Z,0.88
2018-11-03T12:16:19.301Z,1.03
2018-11-03T12:22:14.220Z,0.98
2018-11-03T12:28:09.242Z,1.17
2018-11-03T12:34:04.237Z,1.27
2018-11-03T12:39:59.246Z,1.32
2018-11-03T12:45:54.240Z,1.12
2018-11-03T12:51:49.224Z,1.06
2018-11-03T12:57:44.274Z,1.13
2018-11-03T13:03:39.278Z,1.26
2018-11-03T13:09:34.366Z,1.03
2018-11-03T13:15:29.266Z,0.93
2018-11-03T13:21:24.257Z,3.41
2018-11-03T13:27:19.248Z,2.01
2018-11-03T13:33:14.273Z,1.4
2018-11-03T13:39:09.237Z,0.87
2018-11-03T13:45:04.286Z,0.92
2018-11-03T13:50:59.258Z,1.6
2018-11-03T13:56:54.306Z,1.04
2018-11-03T14:02:49.249Z,1.15
2018-11-03T14:08:44.304Z,1.17
2018-11-03T14:14:39.264Z,0.97
2018-11-03T14:20:34.260Z,1.14
2018-11-03T14:26:29.282Z,2.03
2018-11-03T14:32:24.257Z,1.6
2018-11-03T14:38:19.263Z,7.91
2018-11-03T14:44:14.289Z,1.88
2018-11-03T14:50:09.275Z,1.28
2018-11-03T14:56:04.319Z,2.37
2018-11-03T15:01:59.268Z,1.02
2018-11-03T15:07:54.272Z,2.32
2018-11-03T15:13:49.454Z,1.47
2018-11-03T15:19:44.277Z,1.46
2018-11-03T15:25:39.302Z,2.12
2018-11-03T15:31:34.315Z,1.85
2018-11-03T15:37:29.305Z,1.19
2018-11-03T15:43:24.278Z,1.1
2018-11-03T15:49:19.292Z,0.96
2018-11-03T15:55:14.277Z,0.99
2018-11-03T16:01:09.323Z,1.24
2018-11-03T16:07:04.382Z,1.48
2018-11-03T16:12:59.307Z,1.4
2018-11-03T16:18:54.337Z,0.98
2018-11-03T16:24:49.311Z,1.4
2018-11-03T16:30:44.306Z,0.93
2018-11-03T16:36:39.323Z,0.93
2018-11-03T16:42:34.327Z,1.35
2018-11-03T16:48:29.355Z,0.95
2018-11-03T16:54:24.318Z,1.02
2018-11-03T17:00:19.309Z,1.04
2018-11-03T17:06:14.405Z,1.86
2018-11-03T17:12:09.367Z,1.67
2018-11-03T17:18:04.317Z,1.58
2018-11-03T17:23:59.334Z,2.14
2018-11-03T17:29:54.313Z,1.4
2018-11-03T17:35:49.317Z,2.34
2018-11-03T17:41:44.363Z,1.25
2018-11-03T17:47:39.326Z,1.16
2018-11-03T17:53:34.385Z,1.56
2018-11-03T17:59:29.328Z,1.14
2018-11-03T18:05:24.354Z,1.26
2018-11-03T18:11:19.364Z,1.25
2018-11-03T18:17:14.339Z,1.4
2018-11-03T18:23:09.361Z,1.04
2018-11-03T18:29:04.334Z,1.27
2018-11-03T18:34:59.340Z,0.98
2018-11-03T18:40:54.339Z,1.24
2018-11-03T18:46:49.536Z,1.47
2018-11-03T18:52:44.363Z,1.18
2018-11-03T18:58:39.375Z,1.27
2018-11-03T19:04:34.372Z,1.47
2018-11-03T19:10:29.344Z,1.49
2018-11-03T19:16:24.399Z,1.51
2018-11-03T19:22:19.363Z,1.24
2018-11-03T19:28:14.353Z,1.44
2018-11-03T19:34:09.370Z,1.33
2018-11-03T19:40:04.373Z,1.62
2018-11-03T19:45:59.346Z,2.03
2018-11-03T19:51:54.405Z,1.48
2018-11-03T19:57:49.387Z,2.58
2018-11-03T20:03:44.402Z,1.99
2018-11-03T20:09:39.410Z,1.63
2018-11-03T20:15:34.414Z,1.22
2018-11-03T20:21:29.397Z,1.4
2018-11-03T20:27:24.425Z,1.43
2018-11-03T20:33:19.386Z,1.58
2018-11-03T20:39:14.406Z,1.8
2018-11-03T20:45:09.396Z,1.36
2018-11-03T20:51:04.393Z,1.86
2018-11-03T20:56:59.396Z,1.4
2018-11-03T21:02:54.388Z,1.91
2018-11-03T21:08:49.441Z,1.84
2018-11-03T21:14:44.383Z,1.66
2018-11-03T21:20:39.400Z,1.53
2018-11-03T21:26:34.403Z,1.32
2018-11-03T21:32:29.466Z,1.8
2018-11-03T21:38:24.409Z,1.48
2018-11-03T21:44:19.412Z,1.42
2018-11-03T21:50:14.419Z,1.49
2018-11-03T21:56:09.394Z,1.43
2018-11-03T22:02:04.428Z,1.39
2018-11-03T22:07:59.433Z,1.11
2018-11-03T22:13:54.438Z,1.11
2018-11-03T22:19:49.427Z,1.31
2018-11-03T22:25:44.408Z,1.5
2018-11-03T22:31:39.414Z,1.42
2018-11-03T22:37:34.481Z,1.27
2018-11-03T22:43:29.424Z,1.28
2018-11-03T22:49:24.460Z,1.28
2018-11-03T22:55:19.441Z,1.87
2018-11-03T23:01:14.437Z,0.99
2018-11-03T23:07:09.440Z,1.43
2018-11-03T23:13:04.511Z,1.26
2018-11-03T23:18:59.419Z,1.77
2018-11-03T23:24:54.471Z,1.2
2018-11-03T23:30:49.437Z,1.07
2018-11-03T23:36:44.441Z,1.3
2018-11-03T23:42:39.433Z,1.34
2018-11-03T23:48:34.443Z,1.32
2018-11-03T23:54:29.511Z,1.31
